Time;durP1;ratioP1;P1;durP2;ratioP2;P2;SDS_P1;SDS_P2;PMS_P1;PMS_P2;Temp;Humidity;BMP_temperature;BMP_pressure;BME280_temperature;BME280_humidity;BME280_pressure;Samples;Min_cycle;Max_cycle;Signal;HPM_P1;HPM_P2
2023/05/05 00:00:58;;;;;;;;;2.00;1.00;;;;;20.37;41.74;101060.03;5080195;28;45344;-72
2023/05/05 00:03:24;;;;;;;;;1.00;1.00;;;;;20.38;41.98;101064.38;5071165;27;45547;-73
2023/05/05 00:05:51;;;;;;;;;1.25;1.00;;;;;20.39;41.98;101066.09;5080160;27;54692;-73
2023/05/05 00:08:16;;;;;;;;;2.75;1.50;;;;;20.39;41.71;101066.09;5074824;27;45346;-72
2023/05/05 00:10:46;;;;;;;;;1.00;1.00;;;;;20.37;41.62;101049.41;5080788;27;45253;-72
2023/05/05 00:13:12;;;;;;;;;1.00;1.00;;;;;20.37;41.94;101049.41;5073506;28;45299;-72
2023/05/05 00:15:38;;;;;;;;;1.25;0.50;;;;;20.37;42.05;101050.25;5080227;27;46432;-72
2023/05/05 00:18:06;;;;;;;;;1.00;1.00;;;;;20.37;41.57;101052.06;5074530;27;45871;-72
2023/05/05 00:20:32;;;;;;;;;1.00;1.00;;;;;20.37;41.58;101055.56;5050727;28;45376;-72
2023/05/05 00:22:57;;;;;;;;;0.75;0.75;;;;;20.37;41.49;101057.38;5077685;27;67487;-73
2023/05/05 00:25:22;;;;;;;;;1.00;1.00;;;;;20.35;42.03;101054.81;5079849;27;55036;-72
2023/05/05 00:27:48;;;;;;;;;1.00;1.00;;;;;20.38;41.67;101059.94;5074588;27;68714;-73
2023/05/05 00:30:13;;;;;;;;;0.75;0.75;;;;;20.36;41.46;101056.53;5068535;28;66046;-73
2023/05/05 00:32:38;;;;;;;;;2.00;1.00;;;;;20.38;41.93;101057.28;5075684;27;72507;-72
2023/05/05 00:35:05;;;;;;;;;2.00;1.00;;;;;20.37;41.97;101050.25;5068157;28;46750;-73
2023/05/05 00:37:30;;;;;;;;;1.00;1.00;;;;;20.37;41.94;101046.75;5054135;28;45980;-72
2023/05/05 00:39:56;;;;;;;;;1.75;1.75;;;;;20.33;41.66;101034.59;5073548;28;45477;-72
2023/05/05 00:42:21;;;;;;;;;1.00;1.00;;;;;20.38;41.59;101030.72;5077203;27;45378;-72
2023/05/05 00:44:46;;;;;;;;;3.25;1.00;;;;;20.37;41.48;101042.28;5079141;27;73558;-72
2023/05/05 00:47:13;;;;;;;;;2.00;1.25;;;;;20.38;41.72;101043.13;5076329;28;57538;-72
2023/05/05 00:49:38;;;;;;;;;2.00;1.00;;;;;20.37;42.15;101042.28;5077397;27;45414;-72
2023/05/05 00:52:07;;;;;;;;;0.50;0.50;;;;;20.35;41.67;101035.38;5073410;27;53159;-72
2023/05/05 00:54:36;;;;;;;;;0.50;0.00;;;;;20.38;41.79;101048.44;5069637;27;45393;-72
2023/05/05 00:57:02;;;;;;;;;1.00;0.50;;;;;20.37;41.86;101052.06;5059913;28;74869;-73
2023/05/05 00:59:29;;;;;;;;;0.75;0.75;;;;;20.32;41.66;101044.38;5070731;27;45391;-73
2023/05/05 01:01:55;;;;;;;;;0.75;0.25;;;;;20.37;41.70;101055.56;5076150;28;45563;-72
2023/05/05 01:04:20;;;;;;;;;0.25;0.25;;;;;20.37;41.84;101060.88;5071882;27;75971;-72
2023/05/05 01:07:06;;;;;;;;;1.00;1.00;;;;;20.37;42.07;101054.72;5061785;27;71079;-72
2023/05/05 01:09:48;;;;;;;;;2.25;0.25;;;;;20.36;41.82;101050.34;5077081;27;45202;-72
2023/05/05 01:12:48;;;;;;;;;1.00;1.00;;;;;20.35;41.72;101049.50;5074364;27;45341;-72
2023/05/05 01:15:40;;;;;;;;;1.75;1.00;;;;;20.37;41.83;101055.56;5074188;27;46641;-73
2023/05/05 01:18:26;;;;;;;;;3.00;1.00;;;;;20.37;41.58;101055.56;5067580;28;45567;-73
2023/05/05 01:21:02;;;;;;;;;1.00;1.00;;;;;20.37;42.19;101046.75;5080753;27;45268;-73
2023/05/05 01:23:52;;;;;;;;;2.00;0.25;;;;;20.37;41.84;101044.09;5066949;28;45409;-72
2023/05/05 01:26:38;;;;;;;;;2.00;0.50;;;;;20.37;41.78;101047.59;5066807;28;46555;-73
2023/05/05 01:29:31;;;;;;;;;0.00;0.00;;;;;20.36;42.14;101040.59;5074940;28;45420;-73
2023/05/05 01:32:00;;;;;;;;;0.00;0.00;;;;;20.36;41.80;101031.75;5068575;27;45344;-73
2023/05/05 01:34:30;;;;;;;;;1.00;1.00;;;;;20.33;41.77;101034.59;5055148;28;46338;-72
2023/05/05 01:37:10;;;;;;;;;1.75;1.00;;;;;20.36;42.13;101023.78;5052886;28;48392;-72
2023/05/05 01:39:36;;;;;;;;;1.00;1.00;;;;;20.35;41.76;101030.91;5089488;27;45519;-73
2023/05/05 01:42:05;;;;;;;;;0.75;0.00;;;;;20.36;41.88;101029.09;5075665;27;45382;-72
2023/05/05 01:44:32;;;;;;;;;0.00;0.00;;;;;20.35;41.76;101030.91;5079413;28;45342;-72
2023/05/05 01:46:58;;;;;;;;;1.00;1.00;;;;;20.35;41.89;101024.72;5076652;27;48114;-72
2023/05/05 01:49:25;;;;;;;;;0.00;0.00;;;;;20.34;42.06;101015.03;5079138;27;45326;-73
2023/05/05 01:51:51;;;;;;;;;0.00;0.00;;;;;20.35;42.19;101020.25;5072439;28;45486;-73
2023/05/05 01:54:17;;;;;;;;;1.00;1.00;;;;;20.37;41.80;101022.81;5079197;28;59670;-73
2023/05/05 01:56:44;;;;;;;;;2.00;0.25;;;;;20.36;41.80;101016.66;5077416;28;49525;-73
2023/05/05 01:59:10;;;;;;;;;0.50;0.50;;;;;20.36;41.60;101021.09;5093299;27;54394;-73
2023/05/05 02:01:38;;;;;;;;;2.50;0.00;;;;;20.37;42.04;101028.16;5065181;27;45805;-73
2023/05/05 02:04:05;;;;;;;;;2.00;0.25;;;;;20.37;41.92;101036.13;5066948;28;45398;-73
2023/05/05 02:06:32;;;;;;;;;0.25;0.25;;;;;20.36;41.87;101034.41;5075358;27;46981;-73
2023/05/05 02:08:58;;;;;;;;;0.75;0.75;;;;;20.38;42.03;101036.03;5075786;28;45269;-73
2023/05/05 02:11:25;;;;;;;;;2.00;0.00;;;;;20.36;41.87;101035.28;5076473;27;55430;-72
2023/05/05 02:13:52;;;;;;;;;0.00;0.00;;;;;20.36;41.95;101032.63;5069735;28;45303;-72
2023/05/05 02:16:17;;;;;;;;;0.50;0.50;;;;;20.37;41.84;101028.16;5047083;28;47336;-73
2023/05/05 02:18:45;;;;;;;;;1.25;1.00;;;;;20.35;42.03;101016.75;5077590;27;66048;-73
2023/05/05 02:21:10;;;;;;;;;1.75;0.00;;;;;20.35;41.72;101016.75;5076436;27;45323;-73
2023/05/05 02:23:36;;;;;;;;;1.00;1.00;;;;;20.37;42.00;101029.00;5078427;27;45501;-73
2023/05/05 02:26:06;;;;;;;;;0.25;0.00;;;;;20.37;41.67;101031.66;5065376;27;46295;-73
2023/05/05 02:28:41;;;;;;;;;1.25;1.00;;;;;20.37;42.25;101049.41;5073117;27;45314;-72
2023/05/05 02:31:07;;;;;;;;;0.00;0.00;;;;;20.38;42.32;101065.28;5081453;27;45302;-73
2023/05/05 02:33:34;;;;;;;;;1.25;1.00;;;;;20.37;41.76;101060.03;5058886;27;45522;-73
2023/05/05 02:36:06;;;;;;;;;2.00;0.00;;;;;20.37;41.74;101068.03;5081019;27;50413;-72
2023/05/05 02:38:32;;;;;;;;;1.50;1.00;;;;;20.37;42.02;101063.53;5070025;27;45511;-72
2023/05/05 02:40:59;;;;;;;;;0.25;0.00;;;;;20.38;41.70;101059.94;5082311;27;45343;-73
2023/05/05 02:43:26;;;;;;;;;0.00;0.00;;;;;20.38;42.18;101059.06;5081900;27;69234;-72
2023/05/05 02:45:52;;;;;;;;;0.00;0.00;;;;;20.37;41.72;101057.38;5092886;27;45538;-72
2023/05/05 02:48:17;;;;;;;;;1.50;0.00;;;;;20.36;42.32;101047.69;5071884;27;45793;-72
2023/05/05 02:50:42;;;;;;;;;1.00;1.00;;;;;20.38;42.19;101046.66;5080082;27;45478;-72
2023/05/05 02:53:08;;;;;;;;;1.25;0.00;;;;;20.39;42.08;101052.81;5054069;28;45604;-72
2023/05/05 02:55:41;;;;;;;;;1.50;1.00;;;;;20.37;42.04;101049.41;5064116;28;47885;-72
2023/05/05 02:58:23;;;;;;;;;0.75;0.75;;;;;20.37;41.82;101044.94;5073369;27;45794;-73
2023/05/05 03:00:48;;;;;;;;;0.00;0.00;;;;;20.39;41.93;101053.66;5082056;27;45392;-73
2023/05/05 03:03:35;;;;;;;;;0.00;0.00;;;;;20.39;42.22;101056.31;5076875;27;45386;-73
2023/05/05 03:06:13;;;;;;;;;0.00;0.00;;;;;20.38;42.24;101051.97;5081624;27;46466;-73
2023/05/05 03:08:49;;;;;;;;;1.75;0.00;;;;;20.38;42.06;101051.97;5089448;27;45378;-73
2023/05/05 03:11:26;;;;;;;;;0.50;0.00;;;;;20.39;42.13;101039.53;5079070;27;45370;-73
2023/05/05 03:14:03;;;;;;;;;0.00;0.00;;;;;20.36;42.19;101032.63;5053432;28;45437;-73
2023/05/05 03:16:31;;;;;;;;;0.00;0.00;;;;;20.38;42.19;101032.50;5078855;27;46170;-73
2023/05/05 03:18:57;;;;;;;;;0.00;0.00;;;;;20.37;41.74;101020.16;5075201;28;45433;-72
2023/05/05 03:21:23;;;;;;;;;0.00;0.00;;;;;20.38;41.96;101019.19;5068214;28;45244;-72
2023/05/05 03:23:48;;;;;;;;;0.00;0.00;;;;;20.38;42.30;101019.19;5079367;28;49810;-72
2023/05/05 03:26:17;;;;;;;;;1.00;0.00;;;;;20.36;42.10;101014.00;5049597;28;70973;-73
2023/05/05 03:28:42;;;;;;;;;0.00;0.00;;;;;20.38;42.02;101016.53;5080877;27;45501;-73
2023/05/05 03:31:08;;;;;;;;;0.00;0.00;;;;;20.38;41.91;101024.53;5079640;28;45334;-73
2023/05/05 03:33:33;;;;;;;;;2.00;0.00;;;;;20.39;42.25;101040.38;5059235;28;52705;-73
2023/05/05 03:35:58;;;;;;;;;2.00;0.00;;;;;20.36;42.11;101037.94;5062118;28;71782;-73
2023/05/05 03:38:24;;;;;;;;;1.00;0.25;;;;;20.36;42.43;101040.59;5068152;27;66810;-72
2023/05/05 03:40:49;;;;;;;;;0.75;0.50;;;;;20.37;42.52;101047.59;5081068;28;45326;-72
2023/05/05 03:43:14;;;;;;;;;1.00;0.00;;;;;20.37;42.28;101049.41;5077021;27;61286;-73
2023/05/05 03:45:40;;;;;;;;;0.50;0.25;;;;;20.37;42.33;101052.06;5069773;28;45385;-73
2023/05/05 03:48:05;;;;;;;;;0.25;0.25;;;;;20.37;42.36;101060.03;5075031;27;58741;-73
2023/05/05 03:50:31;;;;;;;;;0.00;0.00;;;;;20.37;41.96;101057.38;5064249;28;45604;-72
2023/05/05 03:52:56;;;;;;;;;0.00;0.00;;;;;20.39;41.85;101074.09;5069910;28;66060;-73
2023/05/05 03:55:21;;;;;;;;;0.25;0.25;;;;;20.38;41.97;101073.25;5079280;27;73837;-73
2023/05/05 03:57:47;;;;;;;;;1.25;0.25;;;;;20.38;42.22;101065.28;5054365;28;45420;-73
2023/05/05 04:00:13;;;;;;;;;0.00;0.00;;;;;20.39;42.08;101069.63;5081446;28;60507;-73
2023/05/05 04:02:38;;;;;;;;;1.00;0.00;;;;;20.38;42.47;101072.38;5076354;27;45414;-73
2023/05/05 04:05:03;;;;;;;;;0.00;0.00;;;;;20.37;41.94;101068.03;5061833;28;71780;-73
2023/05/05 04:07:29;;;;;;;;;0.00;0.00;;;;;20.37;42.44;101076.84;5073119;28;45472;-73
2023/05/05 04:09:54;;;;;;;;;1.00;0.00;;;;;20.38;42.04;101083.00;5070535;28;60881;-73
2023/05/05 04:12:20;;;;;;;;;0.00;0.00;;;;;20.38;42.21;101080.34;5068189;28;45335;-73
2023/05/05 04:14:45;;;;;;;;;1.00;0.00;;;;;20.37;42.17;101082.16;5076958;27;60438;-73
2023/05/05 04:17:11;;;;;;;;;2.00;0.50;;;;;20.38;42.29;101083.88;5055186;28;45838;-73
2023/05/05 04:19:36;;;;;;;;;0.00;0.00;;;;;20.38;42.05;101083.88;5073778;27;66618;-73
2023/05/05 04:22:01;;;;;;;;;0.00;0.00;;;;;20.39;42.16;101090.03;5074742;28;45603;-73
2023/05/05 04:24:27;;;;;;;;;0.00;0.00;;;;;20.36;42.17;101075.16;5074444;27;56221;-73
2023/05/05 04:26:52;;;;;;;;;1.00;0.00;;;;;20.39;42.17;101085.56;5067301;27;60985;-73
2023/05/05 04:29:18;;;;;;;;;0.00;0.00;;;;;20.37;42.27;101079.50;5070530;27;65803;-73
2023/05/05 04:31:43;;;;;;;;;2.00;1.00;;;;;20.38;42.41;101083.00;5074597;27;45520;-73
2023/05/05 04:34:09;;;;;;;;;0.50;0.25;;;;;20.39;42.14;101096.19;5077764;27;63751;-73
2023/05/05 04:36:34;;;;;;;;;0.50;0.50;;;;;20.38;42.33;101091.84;5070215;27;45293;-73
2023/05/05 04:39:00;;;;;;;;;0.00;0.00;;;;;20.36;42.27;101093.75;5069870;27;68287;-73
2023/05/05 04:41:25;;;;;;;;;0.00;0.00;;;;;20.37;42.22;101089.28;5078512;27;71957;-73
2023/05/05 04:43:52;;;;;;;;;0.75;0.75;;;;;20.38;42.31;101090.97;5079401;27;46427;-73
2023/05/05 04:46:17;;;;;;;;;0.00;0.00;;;;;20.34;42.19;101095.63;5078254;28;45306;-73
2023/05/05 04:48:42;;;;;;;;;1.25;0.00;;;;;20.35;42.47;101100.00;5079585;27;45546;-73
2023/05/05 04:51:08;;;;;;;;;0.00;0.00;;;;;20.36;42.09;101106.16;5078412;28;45464;-73
2023/05/05 04:53:33;;;;;;;;;0.00;0.00;;;;;20.36;42.42;101104.38;5067207;27;52495;-73
2023/05/05 04:56:00;;;;;;;;;0.00;0.00;;;;;20.37;42.41;101108.72;5071581;28;45228;-73
2023/05/05 04:58:25;;;;;;;;;1.00;0.00;;;;;20.36;42.82;101106.16;5054038;28;45459;-73
2023/05/05 05:00:50;;;;;;;;;0.00;0.00;;;;;20.37;42.39;101107.88;5081145;27;45362;-73
2023/05/05 05:03:16;;;;;;;;;0.00;0.00;;;;;20.36;41.97;101108.81;5073949;27;48985;-73
2023/05/05 05:05:41;;;;;;;;;1.25;0.00;;;;;20.37;42.29;101113.22;5078892;28;67965;-73
2023/05/05 05:08:06;;;;;;;;;0.00;0.00;;;;;20.37;42.36;101110.53;5071864;27;45254;-73
2023/05/05 05:10:32;;;;;;;;;1.75;0.00;;;;;20.37;42.44;101116.72;5079951;27;45752;-73
2023/05/05 05:12:57;;;;;;;;;0.00;0.00;;;;;20.37;42.37;101107.88;5071549;27;71711;-73
2023/05/05 05:15:22;;;;;;;;;0.00;0.00;;;;;20.38;42.28;101114.91;5080025;27;68545;-73
2023/05/05 05:17:48;;;;;;;;;1.50;1.00;;;;;20.36;42.17;101112.34;5072830;28;45292;-72
2023/05/05 05:20:13;;;;;;;;;0.50;0.00;;;;;20.35;42.51;101115.97;5073302;27;70737;-73
2023/05/05 05:22:39;;;;;;;;;0.00;0.00;;;;;20.35;42.72;101110.63;5079011;27;59881;-73
2023/05/05 05:25:05;;;;;;;;;0.00;0.00;;;;;20.37;42.28;101115.88;5059485;28;45420;-72
2023/05/05 05:27:30;;;;;;;;;1.00;0.00;;;;;20.38;42.82;101109.56;5071277;27;45545;-72
2023/05/05 05:29:56;;;;;;;;;2.00;0.50;;;;;20.36;42.15;101115.03;5069122;27;69651;-73
2023/05/05 05:32:21;;;;;;;;;0.00;0.00;;;;;20.35;42.28;101118.63;5072783;27;46079;-73
2023/05/05 05:34:46;;;;;;;;;2.25;0.75;;;;;20.38;42.36;101123.75;5051844;28;45377;-72
2023/05/05 05:37:12;;;;;;;;;0.00;0.00;;;;;20.37;42.62;101126.50;5062847;27;59065;-72
2023/05/05 05:39:37;;;;;;;;;2.00;0.00;;;;;20.36;42.61;101124.78;5065579;28;45404;-73
2023/05/05 05:42:02;;;;;;;;;0.75;0.75;;;;;20.37;42.88;101132.66;5053177;28;51751;-73
2023/05/05 05:44:28;;;;;;;;;0.50;0.00;;;;;20.38;42.80;101137.03;5062337;28;45303;-73
2023/05/05 05:46:53;;;;;;;;;0.25;0.25;;;;;20.38;42.83;101128.19;5073543;27;45395;-73
2023/05/05 05:49:18;;;;;;;;;1.50;0.00;;;;;20.37;42.62;101122.03;5057594;28;73322;-73
2023/05/05 05:51:44;;;;;;;;;1.50;0.00;;;;;20.37;42.70;101121.19;5075697;27;71726;-73
2023/05/05 05:54:09;;;;;;;;;1.00;0.00;;;;;20.36;42.67;101127.44;5073968;27;45495;-73
2023/05/05 05:56:35;;;;;;;;;0.00;0.00;;;;;20.35;42.80;101134.56;5075718;28;56691;-73
2023/05/05 05:59:00;;;;;;;;;0.00;0.00;;;;;20.36;42.76;101136.28;5072222;28;71862;-73
2023/05/05 06:01:26;;;;;;;;;1.00;0.00;;;;;20.38;42.93;101144.13;5061497;28;47818;-73
2023/05/05 06:03:51;;;;;;;;;1.00;1.00;;;;;20.38;42.57;101146.78;5073880;28;45402;-73
2023/05/05 06:06:17;;;;;;;;;1.50;1.00;;;;;20.38;42.96;101158.31;5076753;28;45537;-73
2023/05/05 06:08:42;;;;;;;;;2.50;0.00;;;;;20.38;42.58;101153.00;5075540;27;45496;-73
2023/05/05 06:11:07;;;;;;;;;0.75;0.75;;;;;20.38;42.96;101146.78;5058073;28;46604;-73
2023/05/05 06:13:33;;;;;;;;;1.00;0.00;;;;;20.36;43.00;101146.91;5067076;28;72879;-73
2023/05/05 06:15:58;;;;;;;;;2.00;0.75;;;;;20.38;42.88;101152.09;5056267;28;68351;-73
2023/05/05 06:18:24;;;;;;;;;2.00;0.00;;;;;20.37;43.02;101156.59;5067095;28;45466;-73
2023/05/05 06:20:49;;;;;;;;;0.00;0.00;;;;;20.37;42.92;101156.59;5069819;28;75509;-73
2023/05/05 06:23:15;;;;;;;;;2.00;0.00;;;;;20.37;42.47;101164.56;5070662;28;45445;-73
2023/05/05 06:25:40;;;;;;;;;1.00;0.50;;;;;20.38;42.74;101173.38;5075561;28;45680;-73
2023/05/05 06:28:06;;;;;;;;;0.00;0.00;;;;;20.37;42.86;101177.00;5065413;28;45385;-73
2023/05/05 06:30:31;;;;;;;;;0.00;0.00;;;;;20.39;43.06;101175.94;5074872;28;45351;-73
2023/05/05 06:32:57;;;;;;;;;0.00;0.00;;;;;20.37;42.98;101167.22;5077051;27;45319;-73
2023/05/05 06:35:23;;;;;;;;;1.00;1.00;;;;;20.39;42.76;101165.31;5061111;28;45320;-72
2023/05/05 06:37:48;;;;;;;;;3.00;0.25;;;;;20.38;42.99;101165.41;5076989;27;45486;-73
2023/05/05 06:40:14;;;;;;;;;0.00;0.00;;;;;20.38;42.74;101158.31;5071066;28;45300;-73
2023/05/05 06:42:40;;;;;;;;;0.25;0.25;;;;;20.35;43.10;101139.03;5065946;28;45327;-73
2023/05/05 06:45:06;;;;;;;;;0.25;0.00;;;;;20.38;42.74;101144.13;5070234;28;45217;-73
2023/05/05 06:47:31;;;;;;;;;0.00;0.00;;;;;20.36;42.43;101135.41;5066850;27;45278;-73
2023/05/05 06:49:57;;;;;;;;;0.00;0.00;;;;;20.38;42.66;101137.03;5076425;27;72016;-73
2023/05/05 06:52:22;;;;;;;;;0.00;0.00;;;;;20.35;42.56;101125.75;5069254;27;65607;-73
2023/05/05 06:54:47;;;;;;;;;0.00;0.00;;;;;20.38;43.16;101130.84;5074382;28;67133;-73
2023/05/05 06:57:15;;;;;;;;;1.00;1.00;;;;;20.36;42.84;101132.75;5068124;28;53118;-73
2023/05/05 06:59:41;;;;;;;;;1.00;1.00;;;;;20.37;43.08;101140.63;5074171;27;46119;-73
2023/05/05 07:02:06;;;;;;;;;1.00;0.25;;;;;20.37;43.22;101139.78;5076921;28;73235;-73
2023/05/05 07:04:31;;;;;;;;;2.75;0.75;;;;;20.38;42.89;101144.13;5076110;28;45709;-73
2023/05/05 07:06:57;;;;;;;;;0.00;0.00;;;;;20.38;42.98;101155.66;5060629;28;61730;-73
2023/05/05 07:09:22;;;;;;;;;1.00;0.00;;;;;20.38;43.04;101158.31;5071047;28;45441;-73
2023/05/05 07:11:48;;;;;;;;;1.50;0.00;;;;;20.38;42.78;101153.00;5069897;28;45210;-73
2023/05/05 07:14:13;;;;;;;;;2.00;0.00;;;;;20.37;43.12;101161.91;5068712;27;54085;-73
2023/05/05 07:16:39;;;;;;;;;0.00;0.00;;;;;20.37;43.23;101161.06;5070316;27;73208;-73
2023/05/05 07:19:05;;;;;;;;;0.75;0.75;;;;;20.38;43.21;101160.09;5068855;28;47448;-73
2023/05/05 07:21:31;;;;;;;;;0.25;0.25;;;;;20.39;43.20;101159.16;5078511;27;45212;-73
2023/05/05 07:23:56;;;;;;;;;0.50;0.00;;;;;20.39;43.31;101164.47;5079755;27;45428;-73
2023/05/05 07:26:21;;;;;;;;;2.00;0.00;;;;;20.38;42.82;101168.94;5068585;27;70856;-73
2023/05/05 07:28:47;;;;;;;;;0.75;0.75;;;;;20.36;43.30;101152.22;5074659;27;75287;-73
2023/05/05 07:31:12;;;;;;;;;1.00;1.00;;;;;20.39;43.06;101159.16;5076692;27;63681;-72
2023/05/05 07:33:38;;;;;;;;;1.00;1.00;;;;;20.38;43.15;101160.97;5076557;27;45558;-73
2023/05/05 07:36:03;;;;;;;;;0.00;0.00;;;;;20.39;42.93;101137.88;5082407;27;45337;-73
2023/05/05 07:38:29;;;;;;;;;0.00;0.00;;;;;20.39;43.20;101141.38;5076231;27;47255;-72
2023/05/05 07:40:54;;;;;;;;;2.00;0.00;;;;;20.39;42.90;101162.66;5080395;28;72203;-73
2023/05/05 07:43:19;;;;;;;;;0.75;0.75;;;;;20.38;43.01;101144.13;5078047;27;45318;-73
2023/05/05 07:45:45;;;;;;;;;0.00;0.00;;;;;20.38;43.28;101137.03;5078989;27;65614;-73
2023/05/05 07:48:10;;;;;;;;;0.75;0.00;;;;;20.40;43.16;101126.31;5077624;27;75747;-73
2023/05/05 07:50:35;;;;;;;;;1.00;1.00;;;;;20.39;42.77;101133.41;5073090;27;45436;-73
2023/05/05 07:53:01;;;;;;;;;0.00;0.00;;;;;20.41;43.06;101130.66;5074453;27;48900;-73
2023/05/05 07:55:27;;;;;;;;;0.00;0.00;;;;;20.41;42.60;101138.63;5077582;28;45606;-73
2023/05/05 07:57:52;;;;;;;;;0.00;0.00;;;;;20.39;43.05;101140.53;5079656;27;59397;-73
2023/05/05 08:00:18;;;;;;;;;0.25;0.00;;;;;20.40;42.96;101152.91;5080402;27;45506;-73
2023/05/05 08:02:43;;;;;;;;;0.00;0.00;;;;;20.40;43.36;101160.88;5078872;27;45482;-73
2023/05/05 08:05:10;;;;;;;;;2.75;0.00;;;;;20.38;42.89;101162.75;5079884;28;45873;-73
2023/05/05 08:07:39;;;;;;;;;3.00;1.00;;;;;20.41;43.13;101175.84;5063152;27;46984;-73
2023/05/05 08:10:06;;;;;;;;;0.00;0.00;;;;;20.41;43.00;101183.84;5055070;28;45482;-73
2023/05/05 08:12:32;;;;;;;;;1.00;1.00;;;;;20.42;43.27;101180.25;5075799;27;45480;-73
2023/05/05 08:14:57;;;;;;;;;0.50;0.50;;;;;20.40;43.27;101179.47;5074318;27;63692;-73
2023/05/05 08:17:24;;;;;;;;;1.00;0.00;;;;;20.42;43.38;101201.50;5080210;27;67259;-73
2023/05/05 08:19:53;;;;;;;;;1.50;1.00;;;;;20.42;43.33;101194.38;5074871;28;45450;-73
2023/05/05 08:22:20;;;;;;;;;1.00;1.00;;;;;20.40;43.11;101190.97;5072882;28;45406;-73
2023/05/05 08:24:45;;;;;;;;;1.00;0.00;;;;;20.41;43.11;101175.84;5069034;27;46136;-73
2023/05/05 08:27:12;;;;;;;;;1.00;1.00;;;;;20.43;43.01;101179.28;5079857;27;60048;-73
2023/05/05 08:29:38;;;;;;;;;1.00;1.00;;;;;20.40;42.79;101176.81;5078505;27;45378;-73
2023/05/05 08:32:03;;;;;;;;;0.00;0.00;;;;;20.39;43.32;101180.41;5050503;28;45213;-72
2023/05/05 08:34:28;;;;;;;;;1.00;0.00;;;;;20.42;43.33;101181.09;5056483;28;45373;-73
2023/05/05 08:36:55;;;;;;;;;0.75;0.00;;;;;20.42;43.44;101175.78;5062337;28;51628;-73
2023/05/05 08:39:20;;;;;;;;;1.00;1.00;;;;;20.42;43.29;101174.91;5079783;28;45602;-73
2023/05/05 08:41:46;;;;;;;;;0.00;0.00;;;;;20.42;43.19;101180.25;5077634;27;54152;-73
2023/05/05 08:44:11;;;;;;;;;2.75;1.00;;;;;20.42;43.36;101180.25;5079869;27;45279;-73
2023/05/05 08:46:37;;;;;;;;;2.25;0.25;;;;;20.43;43.18;101181.94;5077465;27;65202;-73
2023/05/05 08:49:04;;;;;;;;;1.00;1.00;;;;;20.42;43.14;101181.09;5080040;27;45440;-73
2023/05/05 08:51:32;;;;;;;;;0.25;0.25;;;;;20.42;42.92;101178.44;5079909;27;45500;-73
2023/05/05 08:54:01;;;;;;;;;0.00;0.00;;;;;20.44;43.64;101183.66;5079562;27;45350;-73
2023/05/05 08:56:31;;;;;;;;;3.00;0.00;;;;;20.43;43.50;101189.91;5062738;27;47369;-73
2023/05/05 08:58:58;;;;;;;;;1.00;1.00;;;;;20.43;43.18;101181.94;5079365;27;45746;-73
2023/05/05 09:01:24;;;;;;;;;0.25;0.25;;;;;20.42;43.35;101173.09;5078967;27;45249;-73
2023/05/05 09:03:50;;;;;;;;;2.00;1.00;;;;;20.42;43.45;101178.44;5056935;28;45278;-73
2023/05/05 09:06:15;;;;;;;;;0.75;0.75;;;;;20.44;42.93;101181.84;5059284;28;47566;-73
2023/05/05 09:08:41;;;;;;;;;0.25;0.25;;;;;20.44;43.00;101173.88;5078602;27;45298;-73
2023/05/05 09:11:06;;;;;;;;;3.50;1.00;;;;;20.44;42.97;101176.53;5079122;27;45298;-73
2023/05/05 09:13:32;;;;;;;;;1.00;1.00;;;;;20.44;43.40;101181.00;5077688;28;51192;-73
2023/05/05 09:15:58;;;;;;;;;3.25;1.00;;;;;20.45;43.40;101195.97;5076867;27;45442;-73
2023/05/05 09:18:26;;;;;;;;;1.00;1.00;;;;;20.44;43.24;101192.47;5076036;28;45861;-73
2023/05/05 09:20:51;;;;;;;;;2.25;1.75;;;;;20.47;43.49;101196.75;5079002;27;45491;-73
2023/05/05 09:23:18;;;;;;;;;2.50;1.00;;;;;20.44;42.81;101183.66;5056718;28;52598;-73
2023/05/05 09:25:46;;;;;;;;;1.50;0.25;;;;;20.46;43.16;101182.59;5072406;27;46392;-73
2023/05/05 09:28:16;;;;;;;;;0.25;0.25;;;;;20.47;43.07;101189.63;5076210;27;46091;-73
2023/05/05 09:30:45;;;;;;;;;2.00;1.50;;;;;20.47;43.33;101181.66;5079577;27;45395;-73
2023/05/05 09:33:11;;;;;;;;;2.00;1.25;;;;;20.47;43.15;101178.16;5076363;27;45307;-73
2023/05/05 09:35:53;;;;;;;;;0.75;0.75;;;;;20.46;43.26;101171.13;5077309;27;45965;-73
2023/05/05 09:38:20;;;;;;;;;2.00;2.00;;;;;20.48;42.78;101179.84;5070705;28;45685;-73
2023/05/05 09:40:47;;;;;;;;;1.00;1.00;;;;;20.45;43.50;101180.03;5076972;27;45306;-73
2023/05/05 09:43:12;;;;;;;;;1.00;1.00;;;;;20.46;43.47;101179.94;5076714;27;45371;-73
2023/05/05 09:45:38;;;;;;;;;1.00;1.00;;;;;20.46;43.16;101176.44;5081238;27;45850;-73
2023/05/05 09:48:05;;;;;;;;;3.00;1.00;;;;;20.45;43.05;101170.28;5078582;28;45402;-73
2023/05/05 09:50:42;;;;;;;;;1.00;0.25;;;;;20.48;43.07;101170.06;5079039;27;45322;-73
2023/05/05 09:53:09;;;;;;;;;2.25;1.00;;;;;20.46;43.32;101161.31;5069418;27;45310;-73
2023/05/05 09:55:34;;;;;;;;;3.00;1.50;;;;;20.49;43.07;101166.47;5079190;28;46303;-73
2023/05/05 09:58:32;;;;;;;;;2.25;1.00;;;;;20.48;42.92;101159.41;5078326;27;45311;-73
2023/05/05 10:01:00;;;;;;;;;1.25;1.00;;;;;20.45;43.35;101145.47;5084170;27;45538;-73
2023/05/05 10:03:25;;;;;;;;;2.25;1.00;;;;;20.49;42.96;101152.31;5077302;27;45516;-73
2023/05/05 10:05:52;;;;;;;;;2.00;1.00;;;;;20.44;42.98;101133.13;5069103;28;56525;-73
2023/05/05 10:08:30;;;;;;;;;1.00;1.00;;;;;20.51;42.90;101138.94;5074932;27;45621;-73
2023/05/05 10:11:00;;;;;;;;;1.00;1.00;;;;;20.51;42.98;101142.44;5075379;28;45227;-73
2023/05/05 10:13:26;;;;;;;;;1.00;1.00;;;;;20.48;43.40;101132.84;5075506;28;45568;-73
2023/05/05 10:15:54;;;;;;;;;2.00;1.00;;;;;20.48;43.09;101130.19;5060518;27;47194;-73
2023/05/05 10:18:24;;;;;;;;;1.00;0.50;;;;;20.47;43.08;101127.63;5056220;28;45407;-73
2023/05/05 10:21:01;;;;;;;;;1.00;1.00;;;;;20.51;43.26;101130.97;5074813;28;45341;-73
2023/05/05 10:23:33;;;;;;;;;1.50;1.50;;;;;20.50;43.04;101127.44;5075299;27;45502;-73
2023/05/05 10:26:04;;;;;;;;;1.25;1.00;;;;;20.51;42.91;101125.66;5072640;27;46164;-73
2023/05/05 10:28:43;;;;;;;;;1.00;1.00;;;;;20.49;43.06;101118.59;5069067;28;47186;-73
2023/05/05 10:31:47;;;;;;;;;1.00;1.00;;;;;20.51;43.16;101128.31;5067889;27;45504;-73
2023/05/05 10:34:36;;;;;;;;;2.25;1.00;;;;;20.51;42.83;101121.16;5043871;28;45535;-73
2023/05/05 10:37:03;;;;;;;;;3.00;1.50;;;;;20.51;42.65;101120.31;5055281;28;45524;-73
2023/05/05 10:39:29;;;;;;;;;1.50;1.00;;;;;20.53;43.04;101113.09;5066631;27;45390;-73
2023/05/05 10:41:58;;;;;;;;;1.25;1.25;;;;;20.53;43.06;101115.75;5078154;27;45332;-73
2023/05/05 10:44:24;;;;;;;;;2.25;1.50;;;;;20.49;42.92;101110.63;5076769;27;45358;-73
2023/05/05 10:46:53;;;;;;;;;2.25;1.00;;;;;20.53;42.68;101110.44;5066840;27;46386;-73
2023/05/05 10:49:30;;;;;;;;;1.00;1.00;;;;;20.53;43.02;101108.63;5067937;27;45665;-73
2023/05/05 10:51:56;;;;;;;;;1.00;1.00;;;;;20.53;43.01;101107.78;5043865;28;45199;-73
2023/05/05 10:54:28;;;;;;;;;3.00;2.00;;;;;20.52;43.12;101104.25;5077970;27;45299;-73
2023/05/05 10:56:54;;;;;;;;;3.00;1.75;;;;;20.49;42.83;101100.00;5081425;28;45429;-73
2023/05/05 10:59:38;;;;;;;;;1.75;1.75;;;;;20.55;42.89;101100.56;5080729;28;45287;-73
2023/05/05 11:02:19;;;;;;;;;5.00;2.00;;;;;20.54;42.97;101098.84;5082705;27;45421;-73
2023/05/05 11:05:13;;;;;;;;;2.50;1.50;;;;;20.54;43.14;101091.75;5078308;27;45647;-73
2023/05/05 11:07:38;;;;;;;;;2.75;1.25;;;;;20.55;43.16;101092.59;5085427;27;46725;-73
2023/05/05 11:10:05;;;;;;;;;1.50;1.00;;;;;20.55;43.09;101081.94;5076668;27;45280;-73
2023/05/05 11:12:32;;;;;;;;;2.00;1.00;;;;;20.54;43.29;101083.75;5069103;27;45453;-73
2023/05/05 11:15:22;;;;;;;;;1.00;1.00;;;;;20.55;43.19;101081.94;5076914;27;45244;-73
2023/05/05 11:17:48;;;;;;;;;2.75;2.75;;;;;20.54;43.20;101089.06;5080142;27;45583;-73
2023/05/05 11:20:14;;;;;;;;;2.25;1.00;;;;;20.54;43.00;101077.56;5076126;28;45747;-73
2023/05/05 11:23:01;;;;;;;;;1.25;1.00;;;;;20.55;42.75;101072.16;5061905;28;45491;-73
2023/05/05 11:25:36;;;;;;;;;2.25;1.00;;;;;20.55;43.12;101068.66;5092845;27;45662;-73
2023/05/05 11:28:04;;;;;;;;;1.75;1.00;;;;;20.55;42.82;101076.63;5078417;27;45538;-73